sensor_id;sensor_type;location;lat;lon;timestamp;temperature;humidity
8820;DHT22;4446;50.876;4.736;2022-08-19T00:01:51;17.60;99.90
8820;DHT22;4446;50.876;4.736;2022-08-19T00:04:19;17.60;99.90
8820;DHT22;4446;50.876;4.736;2022-08-19T00:06:47;17.60;99.90
8820;DHT22;4446;50.876;4.736;2022-08-19T00:09:16;17.60;99.90
8820;DHT22;4446;50.876;4.736;2022-08-19T00:11:45;17.60;99.90
8820;DHT22;4446;50.876;4.736;2022-08-19T00:14:15;17.60;99.90
8820;DHT22;4446;50.876;4.736;2022-08-19T00:16:44;17.50;99.90
8820;DHT22;4446;50.876;4.736;2022-08-19T00:19:12;17.50;99.90
8820;DHT22;4446;50.876;4.736;2022-08-19T00:21:39;17.50;99.90
8820;DHT22;4446;50.876;4.736;2022-08-19T00:24:07;17.40;99.90
8820;DHT22;4446;50.876;4.736;2022-08-19T00:26:35;17.50;99.90
8820;DHT22;4446;50.876;4.736;2022-08-19T00:29:03;17.50;99.90
8820;DHT22;4446;50.876;4.736;2022-08-19T00:31:32;17.50;99.90
8820;DHT22;4446;50.876;4.736;2022-08-19T00:33:59;17.50;99.90
8820;DHT22;4446;50.876;4.736;2022-08-19T00:36:26;17.40;99.90
8820;DHT22;4446;50.876;4.736;2022-08-19T00:38:54;17.50;99.90
8820;DHT22;4446;50.876;4.736;2022-08-19T00:41:23;17.40;99.90
8820;DHT22;4446;50.876;4.736;2022-08-19T00:43:58;17.50;99.90
8820;DHT22;4446;50.876;4.736;2022-08-19T00:46:26;17.40;99.90
8820;DHT22;4446;50.876;4.736;2022-08-19T00:48:55;17.40;99.90
8820;DHT22;4446;50.876;4.736;2022-08-19T00:51:23;17.40;99.90
8820;DHT22;4446;50.876;4.736;2022-08-19T00:53:52;17.40;99.90
8820;DHT22;4446;50.876;4.736;2022-08-19T00:56:19;17.40;99.90
8820;DHT22;4446;50.876;4.736;2022-08-19T00:58:47;17.40;99.90
8820;DHT22;4446;50.876;4.736;2022-08-19T01:01:15;17.40;99.90
8820;DHT22;4446;50.876;4.736;2022-08-19T01:03:42;17.40;99.90
8820;DHT22;4446;50.876;4.736;2022-08-19T01:06:10;17.40;99.90
8820;DHT22;4446;50.876;4.736;2022-08-19T01:08:37;17.40;99.90
8820;DHT22;4446;50.876;4.736;2022-08-19T01:11:05;17.50;99.90
8820;DHT22;4446;50.876;4.736;2022-08-19T01:13:33;17.60;99.90
8820;DHT22;4446;50.876;4.736;2022-08-19T01:16:02;17.70;99.90
8820;DHT22;4446;50.876;4.736;2022-08-19T01:18:31;17.70;99.90
8820;DHT22;4446;50.876;4.736;2022-08-19T01:21:04;17.70;99.90
8820;DHT22;4446;50.876;4.736;2022-08-19T01:23:35;17.70;99.90
8820;DHT22;4446;50.876;4.736;2022-08-19T01:26:22;17.70;99.90
8820;DHT22;4446;50.876;4.736;2022-08-19T01:28:51;17.70;99.90
8820;DHT22;4446;50.876;4.736;2022-08-19T01:31:22;17.70;99.90
8820;DHT22;4446;50.876;4.736;2022-08-19T01:33:50;17.70;99.90
8820;DHT22;4446;50.876;4.736;2022-08-19T01:36:23;17.70;99.90
8820;DHT22;4446;50.876;4.736;2022-08-19T01:38:53;17.70;99.90
8820;DHT22;4446;50.876;4.736;2022-08-19T01:41:20;17.70;99.90
8820;DHT22;4446;50.876;4.736;2022-08-19T01:43:49;17.60;99.90
8820;DHT22;4446;50.876;4.736;2022-08-19T01:46:17;17.60;99.90
8820;DHT22;4446;50.876;4.736;2022-08-19T01:48:44;17.60;99.90
8820;DHT22;4446;50.876;4.736;2022-08-19T01:51:12;17.60;99.90
8820;DHT22;4446;50.876;4.736;2022-08-19T01:53:40;17.50;99.90
8820;DHT22;4446;50.876;4.736;2022-08-19T01:56:09;17.40;99.90
8820;DHT22;4446;50.876;4.736;2022-08-19T01:58:40;17.30;99.90
8820;DHT22;4446;50.876;4.736;2022-08-19T02:01:08;17.20;99.90
8820;DHT22;4446;50.876;4.736;2022-08-19T02:03:35;17.10;99.90
8820;DHT22;4446;50.876;4.736;2022-08-19T02:06:03;17.00;99.90
8820;DHT22;4446;50.876;4.736;2022-08-19T02:08:33;16.90;99.90
8820;DHT22;4446;50.876;4.736;2022-08-19T02:11:01;16.80;99.90
8820;DHT22;4446;50.876;4.736;2022-08-19T02:13:31;16.80;99.90
8820;DHT22;4446;50.876;4.736;2022-08-19T02:15:59;16.70;99.90
8820;DHT22;4446;50.876;4.736;2022-08-19T02:18:26;16.70;99.90
8820;DHT22;4446;50.876;4.736;2022-08-19T02:20:53;16.70;99.90
8820;DHT22;4446;50.876;4.736;2022-08-19T02:23:20;16.70;99.90
8820;DHT22;4446;50.876;4.736;2022-08-19T02:25:48;16.80;99.90
8820;DHT22;4446;50.876;4.736;2022-08-19T02:28:15;16.70;99.90
8820;DHT22;4446;50.876;4.736;2022-08-19T02:30:44;16.70;99.90
8820;DHT22;4446;50.876;4.736;2022-08-19T02:33:11;16.70;99.90
8820;DHT22;4446;50.876;4.736;2022-08-19T02:35:41;16.60;99.90
8820;DHT22;4446;50.876;4.736;2022-08-19T02:38:08;16.60;99.90
8820;DHT22;4446;50.876;4.736;2022-08-19T02:40:55;16.50;99.90
8820;DHT22;4446;50.876;4.736;2022-08-19T02:43:23;16.40;99.90
8820;DHT22;4446;50.876;4.736;2022-08-19T02:45:52;16.40;99.90
8820;DHT22;4446;50.876;4.736;2022-08-19T02:48:22;16.30;99.90
8820;DHT22;4446;50.876;4.736;2022-08-19T02:50:51;16.30;99.90
8820;DHT22;4446;50.876;4.736;2022-08-19T02:53:22;16.30;99.90
8820;DHT22;4446;50.876;4.736;2022-08-19T02:55:50;16.20;99.90
8820;DHT22;4446;50.876;4.736;2022-08-19T02:58:17;16.20;99.90
8820;DHT22;4446;50.876;4.736;2022-08-19T03:00:46;16.20;99.90
8820;DHT22;4446;50.876;4.736;2022-08-19T03:03:15;16.10;99.90
8820;DHT22;4446;50.876;4.736;2022-08-19T03:05:43;16.10;99.90
8820;DHT22;4446;50.876;4.736;2022-08-19T03:08:11;16.00;99.90
8820;DHT22;4446;50.876;4.736;2022-08-19T03:10:44;16.00;99.90
8820;DHT22;4446;50.876;4.736;2022-08-19T03:13:13;16.00;99.90
8820;DHT22;4446;50.876;4.736;2022-08-19T03:15:42;15.90;99.90
8820;DHT22;4446;50.876;4.736;2022-08-19T03:18:09;16.00;99.90
8820;DHT22;4446;50.876;4.736;2022-08-19T03:20:42;16.00;99.90
8820;DHT22;4446;50.876;4.736;2022-08-19T03:23:10;16.00;99.90
8820;DHT22;4446;50.876;4.736;2022-08-19T03:25:39;16.00;99.90
8820;DHT22;4446;50.876;4.736;2022-08-19T03:28:09;15.90;99.90
8820;DHT22;4446;50.876;4.736;2022-08-19T03:30:37;15.90;99.90
8820;DHT22;4446;50.876;4.736;2022-08-19T03:33:05;15.80;99.90
8820;DHT22;4446;50.876;4.736;2022-08-19T03:35:34;15.80;99.90
8820;DHT22;4446;50.876;4.736;2022-08-19T03:38:03;15.80;99.90
8820;DHT22;4446;50.876;4.736;2022-08-19T03:40:31;15.70;99.90
8820;DHT22;4446;50.876;4.736;2022-08-19T03:42:58;15.60;99.90
8820;DHT22;4446;50.876;4.736;2022-08-19T03:45:25;15.70;99.90
8820;DHT22;4446;50.876;4.736;2022-08-19T03:47:53;15.60;99.90
8820;DHT22;4446;50.876;4.736;2022-08-19T03:50:20;15.60;99.90
8820;DHT22;4446;50.876;4.736;2022-08-19T03:52:48;15.60;99.90
8820;DHT22;4446;50.876;4.736;2022-08-19T03:55:18;15.60;99.90
8820;DHT22;4446;50.876;4.736;2022-08-19T03:57:45;15.60;99.90
8820;DHT22;4446;50.876;4.736;2022-08-19T04:00:15;15.50;99.90
8820;DHT22;4446;50.876;4.736;2022-08-19T04:02:42;15.50;99.90
8820;DHT22;4446;50.876;4.736;2022-08-19T04:05:09;15.40;99.90
8820;DHT22;4446;50.876;4.736;2022-08-19T04:07:36;15.40;99.90
8820;DHT22;4446;50.876;4.736;2022-08-19T04:10:04;15.40;99.90
8820;DHT22;4446;50.876;4.736;2022-08-19T04:12:33;15.40;99.90
8820;DHT22;4446;50.876;4.736;2022-08-19T04:15:00;15.40;99.90
8820;DHT22;4446;50.876;4.736;2022-08-19T04:17:27;15.40;99.90
8820;DHT22;4446;50.876;4.736;2022-08-19T04:19:54;15.30;99.90
8820;DHT22;4446;50.876;4.736;2022-08-19T04:22:21;15.30;99.90
8820;DHT22;4446;50.876;4.736;2022-08-19T04:24:48;15.30;99.90
8820;DHT22;4446;50.876;4.736;2022-08-19T04:27:15;15.30;99.90
8820;DHT22;4446;50.876;4.736;2022-08-19T04:29:43;15.30;99.90
8820;DHT22;4446;50.876;4.736;2022-08-19T04:32:11;15.30;99.90
8820;DHT22;4446;50.876;4.736;2022-08-19T04:34:41;15.30;99.90
8820;DHT22;4446;50.876;4.736;2022-08-19T04:37:09;15.30;99.90
8820;DHT22;4446;50.876;4.736;2022-08-19T04:39:38;15.30;99.90
8820;DHT22;4446;50.876;4.736;2022-08-19T04:42:23;15.30;99.90
8820;DHT22;4446;50.876;4.736;2022-08-19T04:45:10;15.40;99.90
8820;DHT22;4446;50.876;4.736;2022-08-19T04:47:38;15.40;99.90
8820;DHT22;4446;50.876;4.736;2022-08-19T04:50:06;15.30;99.90
8820;DHT22;4446;50.876;4.736;2022-08-19T04:52:34;15.30;99.90
8820;DHT22;4446;50.876;4.736;2022-08-19T04:55:01;15.30;99.90
8820;DHT22;4446;50.876;4.736;2022-08-19T04:57:28;15.30;99.90
8820;DHT22;4446;50.876;4.736;2022-08-19T04:59:56;15.30;99.90
8820;DHT22;4446;50.876;4.736;2022-08-19T05:02:24;15.30;99.90
8820;DHT22;4446;50.876;4.736;2022-08-19T05:04:56;15.40;99.90
8820;DHT22;4446;50.876;4.736;2022-08-19T05:07:25;15.40;99.90
8820;DHT22;4446;50.876;4.736;2022-08-19T05:09:52;15.40;99.90
8820;DHT22;4446;50.876;4.736;2022-08-19T05:12:19;15.50;99.90
8820;DHT22;4446;50.876;4.736;2022-08-19T05:14:46;15.60;99.90
8820;DHT22;4446;50.876;4.736;2022-08-19T05:17:13;15.60;99.90
8820;DHT22;4446;50.876;4.736;2022-08-19T05:19:41;15.80;99.90
8820;DHT22;4446;50.876;4.736;2022-08-19T05:22:26;15.80;99.90
8820;DHT22;4446;50.876;4.736;2022-08-19T05:25:02;15.90;99.90
8820;DHT22;4446;50.876;4.736;2022-08-19T05:27:29;15.90;99.90
8820;DHT22;4446;50.876;4.736;2022-08-19T05:29:56;16.00;99.90
8820;DHT22;4446;50.876;4.736;2022-08-19T05:32:23;16.00;99.90
8820;DHT22;4446;50.876;4.736;2022-08-19T05:34:52;16.10;99.90
8820;DHT22;4446;50.876;4.736;2022-08-19T05:37:19;16.00;99.90
8820;DHT22;4446;50.876;4.736;2022-08-19T05:39:47;16.10;99.90
8820;DHT22;4446;50.876;4.736;2022-08-19T05:42:15;16.20;99.90
8820;DHT22;4446;50.876;4.736;2022-08-19T05:44:43;16.20;99.90
8820;DHT22;4446;50.876;4.736;2022-08-19T05:47:12;16.20;99.90
8820;DHT22;4446;50.876;4.736;2022-08-19T05:49:41;16.20;99.90
8820;DHT22;4446;50.876;4.736;2022-08-19T05:52:12;16.30;99.90
8820;DHT22;4446;50.876;4.736;2022-08-19T05:54:41;16.20;99.90
8820;DHT22;4446;50.876;4.736;2022-08-19T05:57:09;16.30;99.90
8820;DHT22;4446;50.876;4.736;2022-08-19T05:59:36;16.30;99.90
8820;DHT22;4446;50.876;4.736;2022-08-19T06:02:04;16.30;99.90
8820;DHT22;4446;50.876;4.736;2022-08-19T06:04:32;16.30;99.90
8820;DHT22;4446;50.876;4.736;2022-08-19T06:06:59;16.50;99.90
8820;DHT22;4446;50.876;4.736;2022-08-19T06:09:28;16.50;99.90
8820;DHT22;4446;50.876;4.736;2022-08-19T06:11:57;16.60;99.90
8820;DHT22;4446;50.876;4.736;2022-08-19T06:14:27;16.70;99.90
8820;DHT22;4446;50.876;4.736;2022-08-19T06:16:54;16.80;99.90
8820;DHT22;4446;50.876;4.736;2022-08-19T06:19:22;16.90;99.90
8820;DHT22;4446;50.876;4.736;2022-08-19T06:21:52;17.00;99.90
8820;DHT22;4446;50.876;4.736;2022-08-19T06:24:21;17.20;99.90
8820;DHT22;4446;50.876;4.736;2022-08-19T06:26:53;17.30;99.90
8820;DHT22;4446;50.876;4.736;2022-08-19T06:29:22;17.50;99.90
8820;DHT22;4446;50.876;4.736;2022-08-19T06:31:52;17.60;99.90
8820;DHT22;4446;50.876;4.736;2022-08-19T06:34:20;17.60;99.90
8820;DHT22;4446;50.876;4.736;2022-08-19T06:36:49;17.70;99.90
8820;DHT22;4446;50.876;4.736;2022-08-19T06:39:18;17.70;99.90
8820;DHT22;4446;50.876;4.736;2022-08-19T06:41:48;17.70;99.90
8820;DHT22;4446;50.876;4.736;2022-08-19T06:44:17;17.80;99.90
8820;DHT22;4446;50.876;4.736;2022-08-19T06:46:45;17.90;99.90
8820;DHT22;4446;50.876;4.736;2022-08-19T06:49:12;18.10;99.90
8820;DHT22;4446;50.876;4.736;2022-08-19T06:51:40;18.20;99.90
8820;DHT22;4446;50.876;4.736;2022-08-19T06:54:09;18.40;99.90
8820;DHT22;4446;50.876;4.736;2022-08-19T06:56:37;18.60;99.90
8820;DHT22;4446;50.876;4.736;2022-08-19T06:59:06;18.70;99.90
8820;DHT22;4446;50.876;4.736;2022-08-19T07:01:36;18.90;99.90
8820;DHT22;4446;50.876;4.736;2022-08-19T07:04:04;19.00;99.90
8820;DHT22;4446;50.876;4.736;2022-08-19T07:06:32;19.20;99.90
8820;DHT22;4446;50.876;4.736;2022-08-19T07:08:59;19.30;99.90
8820;DHT22;4446;50.876;4.736;2022-08-19T07:11:26;19.40;99.90
8820;DHT22;4446;50.876;4.736;2022-08-19T07:13:53;19.40;99.90
8820;DHT22;4446;50.876;4.736;2022-08-19T07:16:20;19.40;99.90
8820;DHT22;4446;50.876;4.736;2022-08-19T07:18:50;19.30;99.90
8820;DHT22;4446;50.876;4.736;2022-08-19T07:21:20;19.10;99.90
8820;DHT22;4446;50.876;4.736;2022-08-19T07:23:48;19.10;99.90
8820;DHT22;4446;50.876;4.736;2022-08-19T07:26:22;19.10;99.90
8820;DHT22;4446;50.876;4.736;2022-08-19T07:28:49;19.10;99.90
8820;DHT22;4446;50.876;4.736;2022-08-19T07:31:19;19.10;99.90
8820;DHT22;4446;50.876;4.736;2022-08-19T07:33:50;19.20;99.90
8820;DHT22;4446;50.876;4.736;2022-08-19T07:36:20;19.20;99.90
8820;DHT22;4446;50.876;4.736;2022-08-19T07:38:49;19.40;99.90
8820;DHT22;4446;50.876;4.736;2022-08-19T07:41:18;19.40;99.90
8820;DHT22;4446;50.876;4.736;2022-08-19T07:43:45;19.50;99.90
8820;DHT22;4446;50.876;4.736;2022-08-19T07:46:13;19.60;99.90
8820;DHT22;4446;50.876;4.736;2022-08-19T07:48:41;19.70;99.90
8820;DHT22;4446;50.876;4.736;2022-08-19T07:51:11;20.00;99.90
8820;DHT22;4446;50.876;4.736;2022-08-19T07:53:38;20.40;99.90
8820;DHT22;4446;50.876;4.736;2022-08-19T07:56:06;20.60;99.90
8820;DHT22;4446;50.876;4.736;2022-08-19T07:58:36;20.60;99.90
8820;DHT22;4446;50.876;4.736;2022-08-19T08:01:06;20.60;99.90
8820;DHT22;4446;50.876;4.736;2022-08-19T08:03:33;20.60;99.90
8820;DHT22;4446;50.876;4.736;2022-08-19T08:06:19;20.80;99.90
8820;DHT22;4446;50.876;4.736;2022-08-19T08:09:04;21.30;99.90
8820;DHT22;4446;50.876;4.736;2022-08-19T08:11:38;21.60;99.90
8820;DHT22;4446;50.876;4.736;2022-08-19T08:14:05;21.70;99.90
8820;DHT22;4446;50.876;4.736;2022-08-19T08:16:34;21.90;99.90
8820;DHT22;4446;50.876;4.736;2022-08-19T08:19:01;22.10;99.90
8820;DHT22;4446;50.876;4.736;2022-08-19T08:21:29;22.30;99.90
8820;DHT22;4446;50.876;4.736;2022-08-19T08:23:56;22.40;99.90
8820;DHT22;4446;50.876;4.736;2022-08-19T08:26:24;22.20;99.90
8820;DHT22;4446;50.876;4.736;2022-08-19T08:28:51;22.20;99.90
8820;DHT22;4446;50.876;4.736;2022-08-19T08:31:18;22.20;99.90
8820;DHT22;4446;50.876;4.736;2022-08-19T08:33:46;22.10;99.90
8820;DHT22;4446;50.876;4.736;2022-08-19T08:36:14;22.00;99.90
8820;DHT22;4446;50.876;4.736;2022-08-19T08:38:43;21.90;99.90
8820;DHT22;4446;50.876;4.736;2022-08-19T08:41:17;22.00;99.90
8820;DHT22;4446;50.876;4.736;2022-08-19T08:43:48;22.10;99.90
8820;DHT22;4446;50.876;4.736;2022-08-19T08:46:21;22.30;99.90
8820;DHT22;4446;50.876;4.736;2022-08-19T08:48:52;22.40;99.90
8820;DHT22;4446;50.876;4.736;2022-08-19T08:51:23;22.40;99.90
8820;DHT22;4446;50.876;4.736;2022-08-19T08:53:54;22.20;99.90
8820;DHT22;4446;50.876;4.736;2022-08-19T08:56:21;22.20;99.90
8820;DHT22;4446;50.876;4.736;2022-08-19T08:58:56;22.30;99.90
8820;DHT22;4446;50.876;4.736;2022-08-19T09:01:24;22.50;99.90
8820;DHT22;4446;50.876;4.736;2022-08-19T09:03:52;22.60;99.90
8820;DHT22;4446;50.876;4.736;2022-08-19T09:06:23;22.70;99.90
8820;DHT22;4446;50.876;4.736;2022-08-19T09:09:01;22.70;99.90
8820;DHT22;4446;50.876;4.736;2022-08-19T09:11:41;22.70;99.90
8820;DHT22;4446;50.876;4.736;2022-08-19T09:14:20;22.60;99.90
8820;DHT22;4446;50.876;4.736;2022-08-19T09:16:49;22.60;99.90
8820;DHT22;4446;50.876;4.736;2022-08-19T09:19:17;22.90;99.90
8820;DHT22;4446;50.876;4.736;2022-08-19T09:21:44;23.20;99.90
8820;DHT22;4446;50.876;4.736;2022-08-19T09:24:13;23.20;99.90
8820;DHT22;4446;50.876;4.736;2022-08-19T09:26:40;23.20;99.90
8820;DHT22;4446;50.876;4.736;2022-08-19T09:29:09;23.30;99.90
8820;DHT22;4446;50.876;4.736;2022-08-19T09:31:36;23.40;99.90
8820;DHT22;4446;50.876;4.736;2022-08-19T09:34:04;23.40;99.90
8820;DHT22;4446;50.876;4.736;2022-08-19T09:36:31;23.70;99.90
8820;DHT22;4446;50.876;4.736;2022-08-19T09:39:02;23.70;99.90
8820;DHT22;4446;50.876;4.736;2022-08-19T09:41:32;23.70;99.90
8820;DHT22;4446;50.876;4.736;2022-08-19T09:43:59;23.70;99.90
8820;DHT22;4446;50.876;4.736;2022-08-19T09:46:28;23.80;99.90
8820;DHT22;4446;50.876;4.736;2022-08-19T09:48:58;23.80;99.90
8820;DHT22;4446;50.876;4.736;2022-08-19T09:51:26;23.80;99.90
8820;DHT22;4446;50.876;4.736;2022-08-19T09:53:59;23.70;99.90
8820;DHT22;4446;50.876;4.736;2022-08-19T09:56:27;24.00;99.90
8820;DHT22;4446;50.876;4.736;2022-08-19T09:58:57;24.10;99.90
8820;DHT22;4446;50.876;4.736;2022-08-19T10:01:27;24.30;99.90
8820;DHT22;4446;50.876;4.736;2022-08-19T10:03:56;24.50;99.90
8820;DHT22;4446;50.876;4.736;2022-08-19T10:06:25;24.70;99.90
8820;DHT22;4446;50.876;4.736;2022-08-19T10:08:55;24.70;99.90
8820;DHT22;4446;50.876;4.736;2022-08-19T10:11:23;24.70;99.90
8820;DHT22;4446;50.876;4.736;2022-08-19T10:13:50;24.70;99.90
8820;DHT22;4446;50.876;4.736;2022-08-19T10:16:20;24.40;99.90
8820;DHT22;4446;50.876;4.736;2022-08-19T10:18:48;24.40;99.90
8820;DHT22;4446;50.876;4.736;2022-08-19T10:21:17;24.40;99.90
8820;DHT22;4446;50.876;4.736;2022-08-19T10:23:48;24.30;99.90
8820;DHT22;4446;50.876;4.736;2022-08-19T10:26:17;24.10;99.90
8820;DHT22;4446;50.876;4.736;2022-08-19T10:28:44;24.00;99.90
8820;DHT22;4446;50.876;4.736;2022-08-19T10:31:13;24.20;99.90
8820;DHT22;4446;50.876;4.736;2022-08-19T10:33:41;24.60;99.90
8820;DHT22;4446;50.876;4.736;2022-08-19T10:36:11;24.80;99.90
8820;DHT22;4446;50.876;4.736;2022-08-19T10:38:41;25.20;99.90
8820;DHT22;4446;50.876;4.736;2022-08-19T10:41:10;25.10;99.90
8820;DHT22;4446;50.876;4.736;2022-08-19T10:43:37;24.90;99.90
8820;DHT22;4446;50.876;4.736;2022-08-19T10:46:05;25.00;99.90
8820;DHT22;4446;50.876;4.736;2022-08-19T10:48:32;25.10;99.90
8820;DHT22;4446;50.876;4.736;2022-08-19T10:51:02;25.40;99.90
8820;DHT22;4446;50.876;4.736;2022-08-19T10:53:46;25.30;99.90
8820;DHT22;4446;50.876;4.736;2022-08-19T10:56:14;25.30;99.90
8820;DHT22;4446;50.876;4.736;2022-08-19T10:58:58;25.50;99.90
8820;DHT22;4446;50.876;4.736;2022-08-19T11:01:25;25.60;99.90
8820;DHT22;4446;50.876;4.736;2022-08-19T11:03:53;25.80;99.90
8820;DHT22;4446;50.876;4.736;2022-08-19T11:06:21;25.80;99.90
8820;DHT22;4446;50.876;4.736;2022-08-19T11:08:48;25.90;99.90
8820;DHT22;4446;50.876;4.736;2022-08-19T11:11:15;25.70;99.90
8820;DHT22;4446;50.876;4.736;2022-08-19T11:13:42;25.70;99.90
8820;DHT22;4446;50.876;4.736;2022-08-19T11:16:13;25.60;99.90
8820;DHT22;4446;50.876;4.736;2022-08-19T11:18:42;25.40;99.90
8820;DHT22;4446;50.876;4.736;2022-08-19T11:21:11;25.30;99.90
8820;DHT22;4446;50.876;4.736;2022-08-19T11:23:40;25.10;99.90
8820;DHT22;4446;50.876;4.736;2022-08-19T11:26:07;25.10;99.90
8820;DHT22;4446;50.876;4.736;2022-08-19T11:28:35;25.10;99.90
8820;DHT22;4446;50.876;4.736;2022-08-19T11:31:02;25.20;99.90
8820;DHT22;4446;50.876;4.736;2022-08-19T11:33:30;24.90;99.90
8820;DHT22;4446;50.876;4.736;2022-08-19T11:35:58;24.80;99.90
8820;DHT22;4446;50.876;4.736;2022-08-19T11:38:26;24.90;99.90
8820;DHT22;4446;50.876;4.736;2022-08-19T11:40:59;24.70;99.90
8820;DHT22;4446;50.876;4.736;2022-08-19T11:43:28;24.80;99.90
8820;DHT22;4446;50.876;4.736;2022-08-19T11:45:55;24.90;99.90
8820;DHT22;4446;50.876;4.736;2022-08-19T11:48:24;24.80;99.90
8820;DHT22;4446;50.876;4.736;2022-08-19T11:50:52;24.80;99.90
8820;DHT22;4446;50.876;4.736;2022-08-19T11:53:21;24.60;99.90
8820;DHT22;4446;50.876;4.736;2022-08-19T11:55:48;24.60;99.90
8820;DHT22;4446;50.876;4.736;2022-08-19T11:58:17;24.30;99.90
8820;DHT22;4446;50.876;4.736;2022-08-19T12:00:44;24.30;99.90
8820;DHT22;4446;50.876;4.736;2022-08-19T12:03:12;24.20;99.90
8820;DHT22;4446;50.876;4.736;2022-08-19T12:05:40;24.20;99.90
8820;DHT22;4446;50.876;4.736;2022-08-19T12:08:08;24.60;99.90
8820;DHT22;4446;50.876;4.736;2022-08-19T12:10:35;24.80;99.90
8820;DHT22;4446;50.876;4.736;2022-08-19T12:13:03;24.80;99.90
8820;DHT22;4446;50.876;4.736;2022-08-19T12:15:35;24.90;99.90
8820;DHT22;4446;50.876;4.736;2022-08-19T12:18:03;24.70;99.90
8820;DHT22;4446;50.876;4.736;2022-08-19T12:20:30;24.50;99.90
8820;DHT22;4446;50.876;4.736;2022-08-19T12:22:57;24.30;99.90
8820;DHT22;4446;50.876;4.736;2022-08-19T12:25:25;24.30;99.90
8820;DHT22;4446;50.876;4.736;2022-08-19T12:27:52;24.30;99.90
8820;DHT22;4446;50.876;4.736;2022-08-19T12:30:20;24.30;99.90
8820;DHT22;4446;50.876;4.736;2022-08-19T12:32:49;24.10;99.90
8820;DHT22;4446;50.876;4.736;2022-08-19T12:35:17;24.20;99.90
8820;DHT22;4446;50.876;4.736;2022-08-19T12:37:46;24.30;99.90
8820;DHT22;4446;50.876;4.736;2022-08-19T12:40:13;24.40;99.90
8820;DHT22;4446;50.876;4.736;2022-08-19T12:42:40;24.70;99.90
8820;DHT22;4446;50.876;4.736;2022-08-19T12:45:09;25.10;99.90
8820;DHT22;4446;50.876;4.736;2022-08-19T12:47:37;25.40;99.90
8820;DHT22;4446;50.876;4.736;2022-08-19T12:50:06;25.60;99.90
8820;DHT22;4446;50.876;4.736;2022-08-19T12:52:35;25.60;99.90
8820;DHT22;4446;50.876;4.736;2022-08-19T12:55:05;25.90;99.90
8820;DHT22;4446;50.876;4.736;2022-08-19T12:57:33;26.00;99.90
8820;DHT22;4446;50.876;4.736;2022-08-19T13:00:04;26.20;99.90
8820;DHT22;4446;50.876;4.736;2022-08-19T13:02:34;26.60;99.90
8820;DHT22;4446;50.876;4.736;2022-08-19T13:05:02;26.60;99.90
8820;DHT22;4446;50.876;4.736;2022-08-19T13:07:31;26.80;99.90
8820;DHT22;4446;50.876;4.736;2022-08-19T13:09:59;26.80;99.90
8820;DHT22;4446;50.876;4.736;2022-08-19T13:12:26;27.00;99.90
8820;DHT22;4446;50.876;4.736;2022-08-19T13:14:54;27.30;99.90
8820;DHT22;4446;50.876;4.736;2022-08-19T13:17:21;27.50;99.90
8820;DHT22;4446;50.876;4.736;2022-08-19T13:19:48;27.60;99.90
8820;DHT22;4446;50.876;4.736;2022-08-19T13:22:16;27.20;99.90
8820;DHT22;4446;50.876;4.736;2022-08-19T13:24:44;27.20;99.90
8820;DHT22;4446;50.876;4.736;2022-08-19T13:27:12;27.60;99.90
8820;DHT22;4446;50.876;4.736;2022-08-19T13:29:40;27.80;99.90
8820;DHT22;4446;50.876;4.736;2022-08-19T13:32:24;27.60;99.90
8820;DHT22;4446;50.876;4.736;2022-08-19T13:35:09;27.40;99.90
8820;DHT22;4446;50.876;4.736;2022-08-19T13:37:35;27.20;99.90
8820;DHT22;4446;50.876;4.736;2022-08-19T13:40:12;27.20;99.90
8820;DHT22;4446;50.876;4.736;2022-08-19T13:42:43;27.10;99.90
8820;DHT22;4446;50.876;4.736;2022-08-19T13:45:13;27.10;99.90
8820;DHT22;4446;50.876;4.736;2022-08-19T13:47:42;27.20;99.90
8820;DHT22;4446;50.876;4.736;2022-08-19T13:50:11;27.10;99.90
8820;DHT22;4446;50.876;4.736;2022-08-19T13:52:39;27.10;99.90
8820;DHT22;4446;50.876;4.736;2022-08-19T13:55:07;27.10;99.90
8820;DHT22;4446;50.876;4.736;2022-08-19T13:57:36;27.20;99.90
8820;DHT22;4446;50.876;4.736;2022-08-19T14:00:08;27.20;99.90
8820;DHT22;4446;50.876;4.736;2022-08-19T14:02:36;27.50;99.90
8820;DHT22;4446;50.876;4.736;2022-08-19T14:05:05;27.40;99.90
8820;DHT22;4446;50.876;4.736;2022-08-19T14:07:33;27.90;99.90
8820;DHT22;4446;50.876;4.736;2022-08-19T14:10:00;27.70;99.90
8820;DHT22;4446;50.876;4.736;2022-08-19T14:12:27;27.40;99.90
8820;DHT22;4446;50.876;4.736;2022-08-19T14:14:56;27.30;99.90
8820;DHT22;4446;50.876;4.736;2022-08-19T14:17:23;27.20;99.90
8820;DHT22;4446;50.876;4.736;2022-08-19T14:19:53;27.40;99.90
8820;DHT22;4446;50.876;4.736;2022-08-19T14:22:22;27.00;99.90
8820;DHT22;4446;50.876;4.736;2022-08-19T14:24:49;27.10;99.90
8820;DHT22;4446;50.876;4.736;2022-08-19T14:27:16;26.90;99.90
8820;DHT22;4446;50.876;4.736;2022-08-19T14:29:43;26.70;99.90
8820;DHT22;4446;50.876;4.736;2022-08-19T14:32:13;26.80;99.90
8820;DHT22;4446;50.876;4.736;2022-08-19T14:34:41;27.10;99.90
8820;DHT22;4446;50.876;4.736;2022-08-19T14:37:08;27.30;99.90
8820;DHT22;4446;50.876;4.736;2022-08-19T14:39:35;27.80;99.90
8820;DHT22;4446;50.876;4.736;2022-08-19T14:42:06;27.80;99.90
8820;DHT22;4446;50.876;4.736;2022-08-19T14:44:33;27.40;99.90
8820;DHT22;4446;50.876;4.736;2022-08-19T14:47:01;27.60;99.90
8820;DHT22;4446;50.876;4.736;2022-08-19T14:49:29;28.20;99.90
8820;DHT22;4446;50.876;4.736;2022-08-19T14:51:56;28.60;99.90
8820;DHT22;4446;50.876;4.736;2022-08-19T14:54:23;28.60;99.90
8820;DHT22;4446;50.876;4.736;2022-08-19T14:56:51;28.00;99.90
8820;DHT22;4446;50.876;4.736;2022-08-19T14:59:18;27.50;99.90
8820;DHT22;4446;50.876;4.736;2022-08-19T15:01:45;27.00;99.90
8820;DHT22;4446;50.876;4.736;2022-08-19T15:04:12;26.80;99.90
8820;DHT22;4446;50.876;4.736;2022-08-19T15:06:40;26.70;99.90
8820;DHT22;4446;50.876;4.736;2022-08-19T15:09:08;26.50;99.90
8820;DHT22;4446;50.876;4.736;2022-08-19T15:11:35;26.10;99.90
8820;DHT22;4446;50.876;4.736;2022-08-19T15:14:04;25.80;99.90
8820;DHT22;4446;50.876;4.736;2022-08-19T15:16:33;25.40;99.90
8820;DHT22;4446;50.876;4.736;2022-08-19T15:19:00;25.10;99.90
8820;DHT22;4446;50.876;4.736;2022-08-19T15:21:28;25.00;99.90
8820;DHT22;4446;50.876;4.736;2022-08-19T15:23:58;24.70;99.90
8820;DHT22;4446;50.876;4.736;2022-08-19T15:26:26;24.30;99.90
8820;DHT22;4446;50.876;4.736;2022-08-19T15:28:53;23.90;99.90
8820;DHT22;4446;50.876;4.736;2022-08-19T15:31:22;23.80;99.90
8820;DHT22;4446;50.876;4.736;2022-08-19T15:33:49;23.70;99.90
8820;DHT22;4446;50.876;4.736;2022-08-19T15:36:16;23.60;99.90
8820;DHT22;4446;50.876;4.736;2022-08-19T15:38:43;23.40;99.90
8820;DHT22;4446;50.876;4.736;2022-08-19T15:41:18;23.20;99.90
8820;DHT22;4446;50.876;4.736;2022-08-19T15:43:54;23.00;99.90
8820;DHT22;4446;50.876;4.736;2022-08-19T15:46:25;22.80;99.90
8820;DHT22;4446;50.876;4.736;2022-08-19T15:48:53;22.60;99.90
8820;DHT22;4446;50.876;4.736;2022-08-19T15:51:21;22.60;99.90
8820;DHT22;4446;50.876;4.736;2022-08-19T15:53:48;22.40;99.90
8820;DHT22;4446;50.876;4.736;2022-08-19T15:56:16;22.20;99.90
8820;DHT22;4446;50.876;4.736;2022-08-19T15:58:44;21.90;99.90
8820;DHT22;4446;50.876;4.736;2022-08-19T16:01:28;21.90;99.90
8820;DHT22;4446;50.876;4.736;2022-08-19T16:04:13;22.20;99.90
8820;DHT22;4446;50.876;4.736;2022-08-19T16:06:59;22.80;99.90
8820;DHT22;4446;50.876;4.736;2022-08-19T16:09:29;23.50;99.90
8820;DHT22;4446;50.876;4.736;2022-08-19T16:12:01;24.10;99.90
8820;DHT22;4446;50.876;4.736;2022-08-19T16:14:30;24.60;99.90